Main page
METAR-TAF:

METAR-TAF

Airports :

Dubai International Airport

Dubai, United Arab Emirates

latitude: 25-15-10N, longitude: 055-21-52E, elevation: 8 m

Current weather observation

The report was made 21 minutes ago, at 23:00 UTC
Wind 3 kt from the South/Southeast
Temperature 15°C
Humidity 72%
Pressure 1016 hPa
Visibility 10 km or more
no clouds below 1500 m and no cumulonimbus

METAR: OMDB 212300Z 16003KT CAVOK 15/10 Q1016 NOSIG

Time: 03:21 (23:21 UTC)

Forecast

The report was made 6 hours and 29 minutes ago, at 16:52 UTC
Forecast valid from 21 at 18 UTC to 23 at 00 UTC
Wind 6 kt from the South
Visibility 10 km or more
Few clouds at a height of 3000 ft
Becoming
from 22 at 06 UTC to 22 at 08 UTC
Wind 12 kt from the West
Becoming
from 22 at 16 UTC to 22 at 18 UTC
Wind 5 kt from the South

TAF: OMDB 211652Z 2118/2300 19006KT 9999 FEW030 BECMG 2206/2208 27012KT BECMG 2216/2218 18005KT

Weather observations and forecasts of more than 4000 airports (METAR and TAF reports).

The available stations are represented by yellow and red dots on the map.

Hover mouse over dot to see the name of the station.

Then click to see weather observations and forecasts.

To change the map : click on the green buttons with a black cross to zoom in, on the green button with a dash to zoom out, or on the green arrows for adjacent maps.


METAR-TAF: